sensor_id;sensor_type;location;lat;lon;timestamp;pressure;altitude;pressure_sealevel;temperature;humidity
13029;BME280;6581;42.662;23.402;2023-06-14T00:02:19;95048.47;;;17.70;100.00
13029;BME280;6581;42.662;23.402;2023-06-14T00:04:46;95048.84;;;17.72;100.00
13029;BME280;6581;42.662;23.402;2023-06-14T00:07:13;95044.28;;;17.69;100.00
13029;BME280;6581;42.662;23.402;2023-06-14T00:09:43;95050.69;;;17.75;100.00
13029;BME280;6581;42.662;23.402;2023-06-14T00:12:10;95053.06;;;17.69;100.00
13029;BME280;6581;42.662;23.402;2023-06-14T00:14:38;95040.38;;;17.73;100.00
13029;BME280;6581;42.662;23.402;2023-06-14T00:17:05;95047.94;;;17.79;100.00
13029;BME280;6581;42.662;23.402;2023-06-14T00:19:33;95037.66;;;17.77;100.00
13029;BME280;6581;42.662;23.402;2023-06-14T00:22:01;95037.22;;;17.79;100.00
13029;BME280;6581;42.662;23.402;2023-06-14T00:24:28;95034.78;;;17.88;100.00
13029;BME280;6581;42.662;23.402;2023-06-14T00:26:57;95033.00;;;17.81;100.00
13029;BME280;6581;42.662;23.402;2023-06-14T00:29:24;95027.25;;;17.83;100.00
13029;BME280;6581;42.662;23.402;2023-06-14T00:31:51;95029.47;;;17.84;100.00
13029;BME280;6581;42.662;23.402;2023-06-14T00:34:18;95031.78;;;17.86;100.00
13029;BME280;6581;42.662;23.402;2023-06-14T00:36:45;95026.94;;;17.77;100.00
13029;BME280;6581;42.662;23.402;2023-06-14T00:39:13;95023.38;;;17.84;100.00
13029;BME280;6581;42.662;23.402;2023-06-14T00:41:41;95025.66;;;17.85;100.00
13029;BME280;6581;42.662;23.402;2023-06-14T00:44:09;95018.66;;;17.91;100.00
13029;BME280;6581;42.662;23.402;2023-06-14T00:46:36;95026.56;;;17.98;100.00
13029;BME280;6581;42.662;23.402;2023-06-14T00:49:03;95024.63;;;17.99;100.00
13029;BME280;6581;42.662;23.402;2023-06-14T00:51:30;95023.47;;;18.00;100.00
13029;BME280;6581;42.662;23.402;2023-06-14T00:53:59;95021.59;;;17.97;100.00
13029;BME280;6581;42.662;23.402;2023-06-14T00:56:26;95013.56;;;17.97;100.00
13029;BME280;6581;42.662;23.402;2023-06-14T00:58:55;95018.59;;;17.95;100.00
13029;BME280;6581;42.662;23.402;2023-06-14T01:01:24;95010.19;;;17.93;100.00
13029;BME280;6581;42.662;23.402;2023-06-14T01:03:51;95011.63;;;17.97;100.00
13029;BME280;6581;42.662;23.402;2023-06-14T01:06:23;95016.97;;;18.01;100.00
13029;BME280;6581;42.662;23.402;2023-06-14T01:09:03;95020.16;;;17.92;100.00
13029;BME280;6581;42.662;23.402;2023-06-14T01:11:36;95018.91;;;17.97;100.00
13029;BME280;6581;42.662;23.402;2023-06-14T01:14:07;95022.91;;;17.89;100.00
13029;BME280;6581;42.662;23.402;2023-06-14T01:16:37;95021.34;;;17.91;100.00
13029;BME280;6581;42.662;23.402;2023-06-14T01:19:05;95014.53;;;17.87;100.00
13029;BME280;6581;42.662;23.402;2023-06-14T01:21:32;95017.69;;;17.82;100.00
13029;BME280;6581;42.662;23.402;2023-06-14T01:24:09;95018.94;;;17.73;100.00
13029;BME280;6581;42.662;23.402;2023-06-14T01:26:37;95017.56;;;17.65;100.00
13029;BME280;6581;42.662;23.402;2023-06-14T01:29:12;95024.38;;;17.70;100.00
13029;BME280;6581;42.662;23.402;2023-06-14T01:31:45;95018.47;;;17.79;100.00
13029;BME280;6581;42.662;23.402;2023-06-14T01:34:13;95019.31;;;17.76;100.00
13029;BME280;6581;42.662;23.402;2023-06-14T01:36:41;95021.59;;;17.77;100.00
13029;BME280;6581;42.662;23.402;2023-06-14T01:39:13;95022.91;;;17.89;100.00
13029;BME280;6581;42.662;23.402;2023-06-14T01:41:42;95023.19;;;17.94;100.00
13029;BME280;6581;42.662;23.402;2023-06-14T01:44:12;95019.28;;;17.99;100.00
13029;BME280;6581;42.662;23.402;2023-06-14T01:46:42;95013.22;;;17.95;100.00
13029;BME280;6581;42.662;23.402;2023-06-14T01:49:10;95011.31;;;17.95;100.00
13029;BME280;6581;42.662;23.402;2023-06-14T01:51:37;95010.63;;;17.91;100.00
13029;BME280;6581;42.662;23.402;2023-06-14T01:54:04;95011.38;;;17.92;100.00
13029;BME280;6581;42.662;23.402;2023-06-14T01:56:34;95007.28;;;17.84;100.00
13029;BME280;6581;42.662;23.402;2023-06-14T01:59:01;95006.59;;;17.80;100.00
13029;BME280;6581;42.662;23.402;2023-06-14T02:01:28;95009.56;;;17.85;100.00
13029;BME280;6581;42.662;23.402;2023-06-14T02:03:56;95015.34;;;17.84;100.00
13029;BME280;6581;42.662;23.402;2023-06-14T02:06:24;95015.00;;;17.82;100.00
13029;BME280;6581;42.662;23.402;2023-06-14T02:08:53;95023.78;;;17.82;100.00
13029;BME280;6581;42.662;23.402;2023-06-14T02:11:20;95033.31;;;17.83;100.00
13029;BME280;6581;42.662;23.402;2023-06-14T02:13:49;95030.25;;;17.85;100.00
13029;BME280;6581;42.662;23.402;2023-06-14T02:16:16;95032.59;;;17.83;100.00
13029;BME280;6581;42.662;23.402;2023-06-14T02:18:44;95040.28;;;17.81;100.00
13029;BME280;6581;42.662;23.402;2023-06-14T02:21:11;95044.47;;;17.82;100.00
13029;BME280;6581;42.662;23.402;2023-06-14T02:23:38;95046.63;;;17.90;100.00
13029;BME280;6581;42.662;23.402;2023-06-14T02:26:05;95045.22;;;17.82;100.00
13029;BME280;6581;42.662;23.402;2023-06-14T02:28:34;95043.16;;;17.90;100.00
13029;BME280;6581;42.662;23.402;2023-06-14T02:31:03;95042.34;;;17.93;100.00
13029;BME280;6581;42.662;23.402;2023-06-14T02:33:31;95052.44;;;17.85;100.00
13029;BME280;6581;42.662;23.402;2023-06-14T02:35:58;95052.72;;;17.91;100.00
13029;BME280;6581;42.662;23.402;2023-06-14T02:38:25;95047.84;;;17.86;100.00
13029;BME280;6581;42.662;23.402;2023-06-14T02:40:53;95044.97;;;17.96;100.00
13029;BME280;6581;42.662;23.402;2023-06-14T02:43:20;95039.63;;;17.96;100.00
13029;BME280;6581;42.662;23.402;2023-06-14T02:45:47;95049.59;;;17.96;100.00
13029;BME280;6581;42.662;23.402;2023-06-14T02:48:16;95038.56;;;17.90;100.00
13029;BME280;6581;42.662;23.402;2023-06-14T02:50:43;95057.41;;;17.87;100.00
13029;BME280;6581;42.662;23.402;2023-06-14T02:53:10;95048.31;;;17.81;100.00
13029;BME280;6581;42.662;23.402;2023-06-14T02:55:37;95051.06;;;17.77;100.00
13029;BME280;6581;42.662;23.402;2023-06-14T02:58:06;95050.63;;;17.79;100.00
13029;BME280;6581;42.662;23.402;2023-06-14T03:00:33;95050.38;;;17.73;100.00
13029;BME280;6581;42.662;23.402;2023-06-14T03:03:01;95056.97;;;17.65;100.00
13029;BME280;6581;42.662;23.402;2023-06-14T03:05:29;95049.69;;;17.65;100.00
13029;BME280;6581;42.662;23.402;2023-06-14T03:07:56;95059.63;;;17.68;100.00
13029;BME280;6581;42.662;23.402;2023-06-14T03:10:24;95062.69;;;17.67;100.00
13029;BME280;6581;42.662;23.402;2023-06-14T03:12:55;95062.44;;;17.58;100.00
13029;BME280;6581;42.662;23.402;2023-06-14T03:15:23;95063.22;;;17.58;100.00
13029;BME280;6581;42.662;23.402;2023-06-14T03:17:51;95065.78;;;17.65;100.00
13029;BME280;6581;42.662;23.402;2023-06-14T03:20:20;95062.41;;;17.61;100.00
13029;BME280;6581;42.662;23.402;2023-06-14T03:22:49;95057.88;;;17.58;100.00
13029;BME280;6581;42.662;23.402;2023-06-14T03:25:16;95062.34;;;17.65;100.00
13029;BME280;6581;42.662;23.402;2023-06-14T03:27:46;95060.13;;;17.60;100.00
13029;BME280;6581;42.662;23.402;2023-06-14T03:30:14;95067.84;;;17.54;100.00
13029;BME280;6581;42.662;23.402;2023-06-14T03:32:43;95067.94;;;17.47;100.00
13029;BME280;6581;42.662;23.402;2023-06-14T03:35:11;95060.97;;;17.53;100.00
13029;BME280;6581;42.662;23.402;2023-06-14T03:37:43;95060.03;;;17.67;100.00
13029;BME280;6581;42.662;23.402;2023-06-14T03:40:13;95058.19;;;17.60;100.00
13029;BME280;6581;42.662;23.402;2023-06-14T03:42:42;95068.81;;;17.67;100.00
13029;BME280;6581;42.662;23.402;2023-06-14T03:45:10;95073.81;;;17.65;100.00
13029;BME280;6581;42.662;23.402;2023-06-14T03:47:38;95068.38;;;17.69;100.00
13029;BME280;6581;42.662;23.402;2023-06-14T03:50:05;95077.84;;;17.77;100.00
13029;BME280;6581;42.662;23.402;2023-06-14T03:52:34;95075.09;;;17.81;100.00
13029;BME280;6581;42.662;23.402;2023-06-14T03:55:01;95078.88;;;17.83;100.00
13029;BME280;6581;42.662;23.402;2023-06-14T03:57:30;95073.66;;;17.76;100.00
13029;BME280;6581;42.662;23.402;2023-06-14T03:59:58;95076.50;;;17.65;100.00
13029;BME280;6581;42.662;23.402;2023-06-14T04:02:26;95084.81;;;17.71;100.00
13029;BME280;6581;42.662;23.402;2023-06-14T04:04:54;95078.31;;;17.72;100.00
13029;BME280;6581;42.662;23.402;2023-06-14T04:07:22;95085.28;;;17.89;100.00
13029;BME280;6581;42.662;23.402;2023-06-14T04:09:52;95083.50;;;17.83;100.00
13029;BME280;6581;42.662;23.402;2023-06-14T04:12:19;95088.09;;;17.82;100.00
13029;BME280;6581;42.662;23.402;2023-06-14T04:14:48;95086.91;;;17.83;100.00
13029;BME280;6581;42.662;23.402;2023-06-14T04:17:15;95087.56;;;17.91;100.00
13029;BME280;6581;42.662;23.402;2023-06-14T04:19:44;95087.78;;;18.00;100.00
13029;BME280;6581;42.662;23.402;2023-06-14T04:22:13;95092.47;;;17.96;100.00
13029;BME280;6581;42.662;23.402;2023-06-14T04:24:40;95096.84;;;18.06;100.00
13029;BME280;6581;42.662;23.402;2023-06-14T04:27:08;95091.53;;;18.26;100.00
13029;BME280;6581;42.662;23.402;2023-06-14T04:29:37;95085.91;;;18.40;100.00
13029;BME280;6581;42.662;23.402;2023-06-14T04:32:10;95090.41;;;18.46;100.00
13029;BME280;6581;42.662;23.402;2023-06-14T04:34:39;95090.16;;;18.61;100.00
13029;BME280;6581;42.662;23.402;2023-06-14T04:37:08;95092.88;;;18.77;100.00
13029;BME280;6581;42.662;23.402;2023-06-14T04:39:40;95082.00;;;18.84;100.00
13029;BME280;6581;42.662;23.402;2023-06-14T04:42:08;95085.53;;;18.81;100.00
13029;BME280;6581;42.662;23.402;2023-06-14T04:44:37;95090.00;;;18.87;100.00
13029;BME280;6581;42.662;23.402;2023-06-14T04:47:06;95092.13;;;18.96;100.00
13029;BME280;6581;42.662;23.402;2023-06-14T04:49:34;95096.25;;;19.00;100.00
13029;BME280;6581;42.662;23.402;2023-06-14T04:52:01;95095.66;;;19.09;100.00
13029;BME280;6581;42.662;23.402;2023-06-14T04:54:33;95102.56;;;19.10;100.00
13029;BME280;6581;42.662;23.402;2023-06-14T04:57:03;95106.53;;;19.02;100.00
13029;BME280;6581;42.662;23.402;2023-06-14T04:59:31;95112.84;;;19.12;100.00
13029;BME280;6581;42.662;23.402;2023-06-14T05:02:01;95119.03;;;19.28;100.00
13029;BME280;6581;42.662;23.402;2023-06-14T05:04:29;95114.25;;;19.20;100.00
13029;BME280;6581;42.662;23.402;2023-06-14T05:06:59;95116.94;;;19.20;100.00
13029;BME280;6581;42.662;23.402;2023-06-14T05:09:27;95112.09;;;19.11;100.00
13029;BME280;6581;42.662;23.402;2023-06-14T05:11:54;95110.81;;;19.19;100.00
13029;BME280;6581;42.662;23.402;2023-06-14T05:14:21;95109.13;;;19.25;100.00
13029;BME280;6581;42.662;23.402;2023-06-14T05:16:50;95120.28;;;19.24;100.00
13029;BME280;6581;42.662;23.402;2023-06-14T05:19:17;95121.06;;;19.24;100.00
13029;BME280;6581;42.662;23.402;2023-06-14T05:21:44;95121.56;;;19.35;100.00
13029;BME280;6581;42.662;23.402;2023-06-14T05:24:14;95127.19;;;19.25;100.00
13029;BME280;6581;42.662;23.402;2023-06-14T05:26:42;95124.72;;;19.14;100.00
13029;BME280;6581;42.662;23.402;2023-06-14T05:29:09;95127.31;;;19.18;100.00
13029;BME280;6581;42.662;23.402;2023-06-14T05:31:37;95130.09;;;19.14;100.00
13029;BME280;6581;42.662;23.402;2023-06-14T05:34:04;95131.91;;;19.37;100.00
13029;BME280;6581;42.662;23.402;2023-06-14T05:36:31;95134.75;;;19.66;100.00
13029;BME280;6581;42.662;23.402;2023-06-14T05:38:58;95138.50;;;19.84;100.00
13029;BME280;6581;42.662;23.402;2023-06-14T05:41:28;95140.03;;;20.02;100.00
13029;BME280;6581;42.662;23.402;2023-06-14T05:43:55;95138.19;;;19.82;100.00
13029;BME280;6581;42.662;23.402;2023-06-14T05:46:23;95135.31;;;19.89;100.00
13029;BME280;6581;42.662;23.402;2023-06-14T05:48:51;95144.88;;;19.90;100.00
13029;BME280;6581;42.662;23.402;2023-06-14T05:51:18;95140.28;;;20.07;100.00
13029;BME280;6581;42.662;23.402;2023-06-14T05:53:46;95142.88;;;19.95;100.00
13029;BME280;6581;42.662;23.402;2023-06-14T05:56:13;95143.97;;;19.97;100.00
13029;BME280;6581;42.662;23.402;2023-06-14T05:58:41;95150.19;;;19.94;100.00
13029;BME280;6581;42.662;23.402;2023-06-14T06:01:09;95148.25;;;19.95;100.00
13029;BME280;6581;42.662;23.402;2023-06-14T06:03:36;95147.31;;;19.85;100.00
13029;BME280;6581;42.662;23.402;2023-06-14T06:06:03;95150.00;;;19.85;100.00
13029;BME280;6581;42.662;23.402;2023-06-14T06:08:30;95150.13;;;19.98;100.00
13029;BME280;6581;42.662;23.402;2023-06-14T06:10:58;95159.00;;;19.95;100.00
13029;BME280;6581;42.662;23.402;2023-06-14T06:13:26;95160.78;;;20.01;100.00
13029;BME280;6581;42.662;23.402;2023-06-14T06:15:54;95150.94;;;20.11;100.00
13029;BME280;6581;42.662;23.402;2023-06-14T06:18:21;95153.78;;;20.20;100.00
13029;BME280;6581;42.662;23.402;2023-06-14T06:20:48;95157.75;;;20.31;100.00
13029;BME280;6581;42.662;23.402;2023-06-14T06:23:16;95156.47;;;20.04;100.00
13029;BME280;6581;42.662;23.402;2023-06-14T06:25:43;95156.41;;;20.07;100.00
13029;BME280;6581;42.662;23.402;2023-06-14T06:28:11;95156.91;;;20.18;100.00
13029;BME280;6581;42.662;23.402;2023-06-14T06:30:38;95160.38;;;20.03;100.00
13029;BME280;6581;42.662;23.402;2023-06-14T06:33:07;95163.88;;;20.16;100.00
13029;BME280;6581;42.662;23.402;2023-06-14T06:35:34;95170.59;;;20.24;100.00
13029;BME280;6581;42.662;23.402;2023-06-14T06:38:01;95170.50;;;20.27;100.00
13029;BME280;6581;42.662;23.402;2023-06-14T06:40:28;95169.00;;;20.43;100.00
13029;BME280;6581;42.662;23.402;2023-06-14T06:42:55;95175.28;;;20.52;100.00
13029;BME280;6581;42.662;23.402;2023-06-14T06:45:26;95163.25;;;20.57;100.00
13029;BME280;6581;42.662;23.402;2023-06-14T06:47:53;95174.81;;;20.70;100.00
13029;BME280;6581;42.662;23.402;2023-06-14T06:50:22;95173.78;;;20.80;100.00
13029;BME280;6581;42.662;23.402;2023-06-14T06:52:50;95176.31;;;21.00;100.00
13029;BME280;6581;42.662;23.402;2023-06-14T06:55:18;95177.28;;;20.93;100.00
13029;BME280;6581;42.662;23.402;2023-06-14T06:57:45;95176.63;;;20.89;100.00
13029;BME280;6581;42.662;23.402;2023-06-14T07:00:13;95170.78;;;21.19;100.00
13029;BME280;6581;42.662;23.402;2023-06-14T07:02:41;95180.19;;;21.40;100.00
13029;BME280;6581;42.662;23.402;2023-06-14T07:05:08;95178.47;;;21.59;100.00
13029;BME280;6581;42.662;23.402;2023-06-14T07:07:37;95181.41;;;21.77;96.74
13029;BME280;6581;42.662;23.402;2023-06-14T07:10:05;95185.09;;;21.96;95.71
13029;BME280;6581;42.662;23.402;2023-06-14T07:12:33;95180.44;;;22.09;95.67
13029;BME280;6581;42.662;23.402;2023-06-14T07:15:06;95185.81;;;22.09;95.48
13029;BME280;6581;42.662;23.402;2023-06-14T07:17:34;95185.41;;;22.10;98.02
13029;BME280;6581;42.662;23.402;2023-06-14T07:20:02;95184.31;;;21.95;95.03
13029;BME280;6581;42.662;23.402;2023-06-14T07:22:39;95174.72;;;22.07;94.45
13029;BME280;6581;42.662;23.402;2023-06-14T07:25:08;95173.84;;;22.10;96.70
13029;BME280;6581;42.662;23.402;2023-06-14T07:27:35;95158.22;;;22.52;95.52
13029;BME280;6581;42.662;23.402;2023-06-14T07:30:03;95167.00;;;23.00;91.29
13029;BME280;6581;42.662;23.402;2023-06-14T07:32:30;95170.94;;;24.77;82.95
13029;BME280;6581;42.662;23.402;2023-06-14T07:34:57;95166.44;;;27.27;70.09
13029;BME280;6581;42.662;23.402;2023-06-14T07:37:24;95167.25;;;27.92;62.02
13029;BME280;6581;42.662;23.402;2023-06-14T07:39:53;95168.47;;;29.07;55.26
13029;BME280;6581;42.662;23.402;2023-06-14T07:42:20;95169.41;;;28.78;55.20
13029;BME280;6581;42.662;23.402;2023-06-14T07:44:47;95171.00;;;30.36;50.69
13029;BME280;6581;42.662;23.402;2023-06-14T07:47:16;95167.84;;;30.49;46.85
13029;BME280;6581;42.662;23.402;2023-06-14T07:49:43;95166.28;;;29.94;46.95
13029;BME280;6581;42.662;23.402;2023-06-14T07:52:10;95172.06;;;28.52;50.46
13029;BME280;6581;42.662;23.402;2023-06-14T07:54:39;95178.75;;;27.67;56.05
13029;BME280;6581;42.662;23.402;2023-06-14T07:57:08;95179.72;;;26.58;56.76
13029;BME280;6581;42.662;23.402;2023-06-14T07:59:35;95178.84;;;25.95;59.59
13029;BME280;6581;42.662;23.402;2023-06-14T08:02:02;95175.41;;;26.18;58.64
13029;BME280;6581;42.662;23.402;2023-06-14T08:04:30;95175.72;;;27.06;57.61
13029;BME280;6581;42.662;23.402;2023-06-14T08:06:58;95183.47;;;27.52;51.66
13029;BME280;6581;42.662;23.402;2023-06-14T08:09:25;95194.03;;;27.35;52.81
13029;BME280;6581;42.662;23.402;2023-06-14T08:11:54;95188.44;;;26.85;55.37
13029;BME280;6581;42.662;23.402;2023-06-14T08:14:22;95200.56;;;26.28;57.91
13029;BME280;6581;42.662;23.402;2023-06-14T08:16:50;95197.88;;;25.16;62.79
13029;BME280;6581;42.662;23.402;2023-06-14T08:19:17;95193.78;;;25.30;62.80
13029;BME280;6581;42.662;23.402;2023-06-14T08:21:44;95190.38;;;25.02;63.39
13029;BME280;6581;42.662;23.402;2023-06-14T08:24:12;95201.63;;;24.55;67.46
13029;BME280;6581;42.662;23.402;2023-06-14T08:26:39;95210.34;;;24.41;66.87
13029;BME280;6581;42.662;23.402;2023-06-14T08:29:07;95195.44;;;24.37;66.86
13029;BME280;6581;42.662;23.402;2023-06-14T08:31:35;95202.97;;;24.33;68.10
13029;BME280;6581;42.662;23.402;2023-06-14T08:34:02;95200.66;;;24.22;69.21
13029;BME280;6581;42.662;23.402;2023-06-14T08:36:29;95198.16;;;23.97;70.60
13029;BME280;6581;42.662;23.402;2023-06-14T08:38:56;95194.16;;;24.10;74.29
13029;BME280;6581;42.662;23.402;2023-06-14T08:41:23;95190.84;;;24.15;73.58
13029;BME280;6581;42.662;23.402;2023-06-14T08:43:51;95190.69;;;24.10;72.11
13029;BME280;6581;42.662;23.402;2023-06-14T08:46:18;95188.50;;;23.87;70.30
13029;BME280;6581;42.662;23.402;2023-06-14T08:48:49;95186.22;;;24.16;70.74
13029;BME280;6581;42.662;23.402;2023-06-14T08:51:18;95191.22;;;24.45;68.55
13029;BME280;6581;42.662;23.402;2023-06-14T08:53:52;95180.75;;;24.65;69.80
13029;BME280;6581;42.662;23.402;2023-06-14T08:56:25;95176.97;;;24.62;71.32
13029;BME280;6581;42.662;23.402;2023-06-14T08:58:53;95175.91;;;24.60;69.91
13029;BME280;6581;42.662;23.402;2023-06-14T09:01:20;95176.81;;;24.84;65.33
13029;BME280;6581;42.662;23.402;2023-06-14T09:03:50;95180.28;;;24.94;66.18
13029;BME280;6581;42.662;23.402;2023-06-14T09:06:17;95183.72;;;25.22;65.05
13029;BME280;6581;42.662;23.402;2023-06-14T09:08:49;95183.31;;;25.05;61.96
13029;BME280;6581;42.662;23.402;2023-06-14T09:11:18;95182.22;;;24.57;64.73
13029;BME280;6581;42.662;23.402;2023-06-14T09:13:46;95171.69;;;24.77;66.35
13029;BME280;6581;42.662;23.402;2023-06-14T09:16:13;95174.09;;;24.75;68.48
13029;BME280;6581;42.662;23.402;2023-06-14T09:18:42;95172.44;;;24.78;64.46
13029;BME280;6581;42.662;23.402;2023-06-14T09:21:12;95168.38;;;24.64;64.22
13029;BME280;6581;42.662;23.402;2023-06-14T09:23:39;95170.59;;;24.29;67.35
13029;BME280;6581;42.662;23.402;2023-06-14T09:26:07;95168.28;;;24.09;69.30
13029;BME280;6581;42.662;23.402;2023-06-14T09:28:35;95165.59;;;24.09;70.83
13029;BME280;6581;42.662;23.402;2023-06-14T09:31:03;95165.50;;;24.31;71.13
13029;BME280;6581;42.662;23.402;2023-06-14T09:33:31;95167.03;;;24.50;68.33
13029;BME280;6581;42.662;23.402;2023-06-14T09:35:58;95158.94;;;24.96;66.91
13029;BME280;6581;42.662;23.402;2023-06-14T09:38:27;95160.88;;;24.86;65.29
13029;BME280;6581;42.662;23.402;2023-06-14T09:40:56;95156.63;;;24.85;66.25
13029;BME280;6581;42.662;23.402;2023-06-14T09:43:23;95156.63;;;24.85;65.25
13029;BME280;6581;42.662;23.402;2023-06-14T09:45:52;95158.59;;;24.85;61.65
13029;BME280;6581;42.662;23.402;2023-06-14T09:48:21;95155.03;;;24.88;62.20
13029;BME280;6581;42.662;23.402;2023-06-14T09:50:49;95147.13;;;25.17;62.49
13029;BME280;6581;42.662;23.402;2023-06-14T09:53:20;95148.13;;;25.47;62.63
13029;BME280;6581;42.662;23.402;2023-06-14T09:55:49;95148.53;;;25.64;63.38
13029;BME280;6581;42.662;23.402;2023-06-14T09:58:20;95149.13;;;26.00;57.47
13029;BME280;6581;42.662;23.402;2023-06-14T10:00:51;95151.78;;;26.10;57.25
13029;BME280;6581;42.662;23.402;2023-06-14T10:03:21;95141.19;;;26.21;57.99
13029;BME280;6581;42.662;23.402;2023-06-14T10:05:50;95145.47;;;25.80;57.77
13029;BME280;6581;42.662;23.402;2023-06-14T10:08:19;95132.06;;;25.34;61.07
13029;BME280;6581;42.662;23.402;2023-06-14T10:10:53;95136.31;;;25.08;63.25
13029;BME280;6581;42.662;23.402;2023-06-14T10:13:20;95129.56;;;24.94;62.79
13029;BME280;6581;42.662;23.402;2023-06-14T10:15:57;95126.34;;;25.23;64.46
13029;BME280;6581;42.662;23.402;2023-06-14T10:18:32;95127.56;;;25.13;60.18
13029;BME280;6581;42.662;23.402;2023-06-14T10:21:06;95122.34;;;24.82;60.47
13029;BME280;6581;42.662;23.402;2023-06-14T10:23:38;95114.06;;;24.77;63.87
13029;BME280;6581;42.662;23.402;2023-06-14T10:26:18;95112.53;;;24.76;62.08
13029;BME280;6581;42.662;23.402;2023-06-14T10:28:56;95114.63;;;25.08;62.95
13029;BME280;6581;42.662;23.402;2023-06-14T10:31:39;95119.03;;;25.47;61.56
13029;BME280;6581;42.662;23.402;2023-06-14T10:34:06;95127.53;;;25.73;60.56
13029;BME280;6581;42.662;23.402;2023-06-14T10:36:34;95127.50;;;25.40;60.13
13029;BME280;6581;42.662;23.402;2023-06-14T10:39:05;95111.78;;;25.02;59.19
13029;BME280;6581;42.662;23.402;2023-06-14T10:41:37;95112.28;;;24.92;62.23
13029;BME280;6581;42.662;23.402;2023-06-14T10:44:32;95114.50;;;24.75;63.80
13029;BME280;6581;42.662;23.402;2023-06-14T10:47:06;95112.72;;;24.63;63.06
13029;BME280;6581;42.662;23.402;2023-06-14T10:49:40;95110.59;;;24.85;63.65
13029;BME280;6581;42.662;23.402;2023-06-14T10:52:09;95099.41;;;25.20;62.07
13029;BME280;6581;42.662;23.402;2023-06-14T10:55:10;95101.28;;;25.46;62.50
13029;BME280;6581;42.662;23.402;2023-06-14T10:57:42;95097.50;;;25.44;58.97
13029;BME280;6581;42.662;23.402;2023-06-14T11:00:12;95094.63;;;25.56;61.78
13029;BME280;6581;42.662;23.402;2023-06-14T11:03:17;95095.00;;;25.73;59.47
13029;BME280;6581;42.662;23.402;2023-06-14T11:05:51;95084.06;;;25.49;58.33
13029;BME280;6581;42.662;23.402;2023-06-14T11:08:44;95087.38;;;25.02;58.75
13029;BME280;6581;42.662;23.402;2023-06-14T11:11:16;95083.22;;;24.65;59.97
13029;BME280;6581;42.662;23.402;2023-06-14T11:13:45;95076.75;;;24.53;63.55
13029;BME280;6581;42.662;23.402;2023-06-14T11:16:13;95076.75;;;24.53;61.50
13029;BME280;6581;42.662;23.402;2023-06-14T11:18:41;95081.28;;;24.75;61.11
13029;BME280;6581;42.662;23.402;2023-06-14T11:21:09;95079.44;;;24.99;60.51
13029;BME280;6581;42.662;23.402;2023-06-14T11:23:36;95082.34;;;25.28;62.39
13029;BME280;6581;42.662;23.402;2023-06-14T11:26:03;95066.66;;;25.74;62.54
13029;BME280;6581;42.662;23.402;2023-06-14T11:28:37;95072.66;;;26.02;61.59
13029;BME280;6581;42.662;23.402;2023-06-14T11:31:07;95060.31;;;25.77;58.66
13029;BME280;6581;42.662;23.402;2023-06-14T11:33:34;95065.25;;;25.55;57.00
13029;BME280;6581;42.662;23.402;2023-06-14T11:36:02;95066.81;;;25.38;56.71
13029;BME280;6581;42.662;23.402;2023-06-14T11:38:30;95068.25;;;25.81;56.15
13029;BME280;6581;42.662;23.402;2023-06-14T11:41:00;95065.91;;;25.97;54.97
13029;BME280;6581;42.662;23.402;2023-06-14T11:43:27;95067.94;;;25.88;55.15
13029;BME280;6581;42.662;23.402;2023-06-14T11:45:57;95063.88;;;25.83;55.87
13029;BME280;6581;42.662;23.402;2023-06-14T11:48:37;95058.22;;;25.72;57.19
13029;BME280;6581;42.662;23.402;2023-06-14T11:51:04;95051.22;;;26.04;57.68
13029;BME280;6581;42.662;23.402;2023-06-14T11:53:32;95046.28;;;25.79;56.82
13029;BME280;6581;42.662;23.402;2023-06-14T11:56:00;95047.72;;;25.89;54.79
13029;BME280;6581;42.662;23.402;2023-06-14T11:58:29;95041.50;;;25.97;54.64
13029;BME280;6581;42.662;23.402;2023-06-14T12:00:56;95039.63;;;26.03;56.87
13029;BME280;6581;42.662;23.402;2023-06-14T12:03:23;95033.22;;;25.92;56.73
13029;BME280;6581;42.662;23.402;2023-06-14T12:06:04;95025.03;;;26.01;60.33
13029;BME280;6581;42.662;23.402;2023-06-14T12:08:34;95017.19;;;26.18;54.78
13029;BME280;6581;42.662;23.402;2023-06-14T12:11:06;95013.41;;;26.00;56.89
13029;BME280;6581;42.662;23.402;2023-06-14T12:13:38;95014.53;;;25.94;57.34
13029;BME280;6581;42.662;23.402;2023-06-14T12:16:07;95013.47;;;25.68;57.26
13029;BME280;6581;42.662;23.402;2023-06-14T12:18:35;95017.34;;;25.52;57.01
13029;BME280;6581;42.662;23.402;2023-06-14T12:21:05;95012.22;;;25.54;56.58
13029;BME280;6581;42.662;23.402;2023-06-14T12:23:39;95017.63;;;25.54;58.62
13029;BME280;6581;42.662;23.402;2023-06-14T12:26:06;95008.75;;;25.77;58.04
13029;BME280;6581;42.662;23.402;2023-06-14T12:28:33;95009.69;;;25.98;55.51
13029;BME280;6581;42.662;23.402;2023-06-14T12:31:00;95011.00;;;26.02;56.05
13029;BME280;6581;42.662;23.402;2023-06-14T12:33:29;95009.44;;;25.63;54.34
13029;BME280;6581;42.662;23.402;2023-06-14T12:35:56;95005.06;;;25.33;56.11
13029;BME280;6581;42.662;23.402;2023-06-14T12:38:25;94999.41;;;25.54;57.68
13029;BME280;6581;42.662;23.402;2023-06-14T12:40:52;94994.56;;;25.58;58.97
13029;BME280;6581;42.662;23.402;2023-06-14T12:43:19;94997.22;;;25.68;58.93
13029;BME280;6581;42.662;23.402;2023-06-14T12:45:46;94995.66;;;25.76;58.51
13029;BME280;6581;42.662;23.402;2023-06-14T12:48:13;94990.84;;;25.94;56.92
13029;BME280;6581;42.662;23.402;2023-06-14T12:50:41;94995.16;;;26.01;55.15
13029;BME280;6581;42.662;23.402;2023-06-14T12:53:08;94984.47;;;25.83;53.49
13029;BME280;6581;42.662;23.402;2023-06-14T12:55:36;94989.38;;;25.70;51.18
13029;BME280;6581;42.662;23.402;2023-06-14T12:58:04;94979.59;;;25.87;51.18
13029;BME280;6581;42.662;23.402;2023-06-14T13:00:31;94974.13;;;26.11;51.69
13029;BME280;6581;42.662;23.402;2023-06-14T13:02:58;94975.81;;;26.08;52.41
13029;BME280;6581;42.662;23.402;2023-06-14T13:05:26;94983.66;;;26.30;53.07